Time;durP1;ratioP1;P1;durP2;ratioP2;P2;SDS_P1;SDS_P2;PMS_P1;PMS_P2;Temp;Humidity;BMP_temperature;BMP_pressure;BME280_temperature;BME280_humidity;BME280_pressure;Samples;Min_cycle;Max_cycle;Signal;HPM_P1;HPM_P2
2022/09/25 00:00:53;;;;;;;12.00;11.00;;;;;;;10.22;48.05;100925.56;117265;1186;23569;-74
2022/09/25 00:03:20;;;;;;;12.40;11.20;;;;;;;10.18;48.13;100922.94;117212;1186;23491;-74
2022/09/25 00:05:47;;;;;;;11.90;10.90;;;;;;;10.18;48.17;100919.60;117338;1186;23536;-58
2022/09/25 00:08:17;;;;;;;12.00;10.90;;;;;;;10.19;48.13;100913.98;117362;1186;23646;-58
2022/09/25 00:10:48;;;;;;;11.80;10.80;;;;;;;10.18;48.31;100919.95;117222;1186;21866;-57
2022/09/25 00:13:16;;;;;;;9.00;7.90;;;;;;;10.19;48.25;100923.98;117144;1186;24162;-74
2022/09/25 00:15:48;;;;;;;8.60;7.90;;;;;;;10.19;48.39;100922.59;117210;1186;24796;-58
2022/09/25 00:18:16;;;;;;;9.50;8.70;;;;;;;10.20;48.33;100920.47;117250;1186;23615;-74
2022/09/25 00:20:46;;;;;;;8.60;7.80;;;;;;;10.18;48.35;100918.02;117113;1189;23554;-73
2022/09/25 00:23:14;;;;;;;7.90;7.20;;;;;;;10.16;48.45;100912.41;117284;1186;23549;-58
2022/09/25 00:25:42;;;;;;;8.60;7.70;;;;;;;10.15;48.37;100914.36;117291;1186;23554;-57
2022/09/25 00:28:08;;;;;;;8.40;7.70;;;;;;;10.14;48.42;100910.33;117102;1189;24778;-58
2022/09/25 00:30:39;;;;;;;11.40;7.30;;;;;;;10.13;48.46;100909.98;117257;1186;24172;-58
2022/09/25 00:33:06;;;;;;;;;;;;;;;10.10;48.39;100909.98;117140;1185;22941;-74
2022/09/25 00:35:33;;;;;;;10.20;8.20;;;;;;;10.07;48.49;100908.92;117212;1187;24013;-75
2022/09/25 00:38:01;;;;;;;8.90;8.00;;;;;;;10.06;48.73;100909.10;117245;1185;23545;-58
2022/09/25 00:40:28;;;;;;;8.70;7.90;;;;;;;10.01;48.73;100909.98;117294;1186;23553;-58
2022/09/25 00:42:55;;;;;;;11.00;9.30;;;;;;;9.97;48.80;100913.15;117267;1186;24169;-58
2022/09/25 00:45:22;;;;;;;10.70;9.50;;;;;;;9.89;48.79;100908.08;117132;1186;23661;-58
2022/09/25 00:47:56;;;;;;;13.50;10.30;;;;;;;9.82;49.41;100911.60;117206;1185;23572;-58
2022/09/25 00:50:38;;;;;;;10.70;9.50;;;;;;;9.76;49.31;100910.36;116983;1188;23577;-58
2022/09/25 00:53:31;;;;;;;9.60;8.70;;;;;;;9.71;49.20;100912.65;117075;1186;23573;-74
2022/09/25 00:55:58;;;;;;;9.90;8.60;;;;;;;9.70;49.27;100916.15;117074;1186;23552;-57
2022/09/25 00:58:25;;;;;;;8.90;7.90;;;;;;;9.69;49.19;100920.36;117089;1187;24169;-75
2022/09/25 01:00:52;;;;;;;10.10;8.40;;;;;;;9.70;49.18;100918.27;117224;1186;22928;-75
2022/09/25 01:03:20;;;;;;;8.50;7.70;;;;;;;9.72;49.19;100917.19;117145;1186;23555;-58
2022/09/25 01:05:50;;;;;;;8.60;7.80;;;;;;;9.72;49.29;100916.67;117105;1188;21898;-58
2022/09/25 01:08:18;;;;;;;10.30;7.70;;;;;;;9.71;49.20;100924.74;117192;1186;23579;-74
2022/09/25 01:10:46;;;;;;;9.00;8.10;;;;;;;9.70;49.11;100922.64;117305;1179;23644;-74
2022/09/25 01:13:13;;;;;;;9.70;7.60;;;;;;;9.70;49.15;100924.23;117214;1186;23554;-58
2022/09/25 01:15:41;;;;;;;9.00;8.00;;;;;;;9.71;49.14;100920.17;117303;1184;23563;-64
2022/09/25 01:18:30;;;;;;;8.20;7.50;;;;;;;9.72;49.18;100922.63;117278;1186;24695;-58
2022/09/25 01:21:07;;;;;;;8.70;7.80;;;;;;;9.72;49.26;100923.69;117228;1186;23544;-74
2022/09/25 01:24:05;;;;;;;10.40;9.40;;;;;;;9.72;49.44;100927.02;117237;1186;23565;-58
2022/09/25 01:26:43;;;;;;;12.10;10.80;;;;;;;9.68;49.44;100932.80;117170;1189;24248;-76
2022/09/25 01:29:35;;;;;;;9.20;8.30;;;;;;;9.65;49.39;100923.16;117137;1186;23495;-59
2022/09/25 01:32:48;;;;;;;28.80;16.50;;;;;;;9.65;49.56;100929.13;117109;1188;23640;-58
2022/09/25 01:35:15;;;;;;;15.90;10.40;;;;;;;9.61;49.52;100929.30;116766;1191;24237;-74
2022/09/25 01:37:58;;;;;;;20.30;14.40;;;;;;;9.59;49.49;100929.81;116815;1190;24253;-76
2022/09/25 01:40:32;;;;;;;13.50;10.70;;;;;;;9.60;49.46;100925.79;117059;1186;21842;-75
2022/09/25 01:43:15;;;;;;;13.50;10.30;;;;;;;9.61;49.56;100927.71;117065;1187;23627;-58
2022/09/25 01:45:49;;;;;;;19.20;12.40;;;;;;;9.58;49.41;100927.35;116999;1189;23516;-75
2022/09/25 01:48:18;;;;;;;32.40;18.50;;;;;;;9.58;49.56;100929.11;117148;1187;23450;-74
2022/09/25 01:51:07;;;;;;;26.90;16.30;;;;;;;9.58;49.45;100931.05;117139;1186;22811;-60
2022/09/25 01:53:41;;;;;;;19.00;13.70;;;;;;;9.60;49.51;100932.27;117096;1186;24190;-74
2022/09/25 01:56:42;;;;;;;15.10;10.90;;;;;;;9.62;49.39;100931.05;117152;1186;24161;-75
2022/09/25 01:59:10;;;;;;;15.80;10.30;;;;;;;9.64;49.57;100924.38;117169;1189;24711;-58
2022/09/25 02:01:39;;;;;;;10.30;8.90;;;;;;;9.62;49.55;100921.92;117236;1186;23444;-75
2022/09/25 02:04:55;;;;;;;9.70;8.70;;;;;;;9.62;49.45;100920.52;117310;1186;23624;-59
2022/09/25 02:07:27;;;;;;;8.20;7.50;;;;;;;9.66;49.39;100921.05;117300;1185;23541;-58
2022/09/25 02:09:56;;;;;;;8.10;7.30;;;;;;;9.67;49.47;100918.78;117308;1186;22810;-58
2022/09/25 02:12:30;;;;;;;8.30;7.30;;;;;;;9.67;49.48;100915.27;117311;1185;23673;-58
2022/09/25 02:14:58;;;;;;;9.30;8.40;;;;;;;9.70;49.45;100917.56;117226;1186;21906;-74
2022/09/25 02:20:32;;;;;;;8.40;7.30;;;;;;;9.71;49.30;100908.44;117152;1189;23644;-58
2022/09/25 02:23:19;;;;;;;7.60;6.90;;;;;;;9.71;49.34;100908.61;117164;1186;24250;-58
2022/09/25 02:26:04;;;;;;;7.90;7.20;;;;;;;9.72;49.37;100911.94;117183;1186;23592;-75
2022/09/25 02:28:31;;;;;;;7.30;6.60;;;;;;;9.72;49.30;100911.23;117258;1188;23576;-75
2022/09/25 02:30:58;;;;;;;9.20;7.40;;;;;;;9.72;49.36;100908.95;117335;1186;23554;-58
2022/09/25 02:33:26;;;;;;;8.40;7.00;;;;;;;9.71;49.33;100908.61;117232;1186;23595;-59
2022/09/25 02:35:54;;;;;;;7.90;7.30;;;;;;;9.71;49.24;100907.05;117170;1186;23569;-74
2022/09/25 02:38:21;;;;;;;8.30;7.50;;;;;;;9.70;49.32;100906.52;117311;1186;24243;-75
2022/09/25 02:40:52;;;;;;;7.50;6.80;;;;;;;9.70;49.31;100906.52;117302;1185;24711;-74
2022/09/25 02:43:47;;;;;;;10.80;7.40;;;;;;;9.69;49.42;100908.45;117313;1185;23619;-75
2022/09/25 02:46:37;;;;;;;8.20;7.10;;;;;;;9.71;49.26;100905.46;117318;1186;23552;-75
2022/09/25 02:49:28;;;;;;;9.50;7.00;;;;;;;9.69;49.44;100907.23;117357;1186;22725;-58
2022/09/25 02:52:05;;;;;;;;;;;;;;;9.71;49.35;100909.67;117196;1186;23589;-74
2022/09/25 02:55:21;;;;;;;8.80;6.20;;;;;;;9.72;49.47;100909.13;117119;1186;23580;-75
2022/09/25 02:57:55;;;;;;;7.90;7.10;;;;;;;9.71;49.44;100909.48;117104;1186;23599;-58
2022/09/25 03:00:22;;;;;;;7.40;6.80;;;;;;;9.72;49.46;100908.95;117024;1189;23854;-58
2022/09/25 03:02:55;;;;;;;8.00;7.20;;;;;;;9.72;49.39;100909.66;117140;1187;23557;-75
2022/09/25 03:05:21;;;;;;;8.50;6.90;;;;;;;9.72;49.38;100909.84;117198;1186;22979;-59
2022/09/25 03:10:35;;;;;;;8.80;7.10;;;;;;;9.70;49.35;100915.63;117057;1186;23563;-58
2022/09/25 03:13:25;;;;;;;7.30;6.70;;;;;;;9.72;49.29;100915.45;116801;1189;23587;-58
2022/09/25 03:15:57;;;;;;;9.40;7.20;;;;;;;9.69;49.49;100915.63;117049;1188;21922;-58
2022/09/25 03:18:25;;;;;;;10.70;6.50;;;;;;;9.68;49.42;100917.38;117079;1186;21935;-74
2022/09/25 03:20:53;;;;;;;7.80;6.90;;;;;;;9.66;49.51;100915.63;117003;1187;23652;-58
2022/09/25 03:23:20;;;;;;;7.80;7.10;;;;;;;9.66;49.44;100918.80;117279;1186;23513;-58
2022/09/25 03:25:47;;;;;;;9.80;7.20;;;;;;;9.64;49.41;100916.33;117112;1187;23670;-74
2022/09/25 03:28:17;;;;;;;21.40;11.60;;;;;;;9.63;49.49;100917.73;117138;1186;23650;-76
2022/09/25 03:30:53;;;;;;;9.90;8.30;;;;;;;9.63;49.49;100915.10;117086;1188;23603;-57
2022/09/25 03:33:22;;;;;;;28.40;13.20;;;;;;;9.65;49.69;100920.52;116960;1188;23581;-76
2022/09/25 03:35:59;;;;;;;37.90;16.70;;;;;;;9.62;49.63;100924.04;117045;1187;24019;-57
2022/09/25 03:38:26;;;;;;;16.90;9.70;;;;;;;9.59;49.74;100924.55;117114;1189;21874;-57
2022/09/25 03:40:53;;;;;;;12.90;8.40;;;;;;;9.58;49.66;100925.09;117055;1188;23576;-76
2022/09/25 03:43:20;;;;;;;11.90;7.70;;;;;;;9.61;49.68;100929.30;117345;1185;23554;-75
2022/09/25 03:45:48;;;;;;;12.20;8.50;;;;;;;9.63;49.67;100929.81;117157;1186;23558;-75
2022/09/25 03:48:17;;;;;;;9.90;7.60;;;;;;;9.65;49.57;100928.77;116958;1188;24217;-57
2022/09/25 03:50:45;;;;;;;16.30;7.10;;;;;;;9.68;49.57;100930.86;117118;1188;23660;-57
2022/09/25 03:53:12;;;;;;;14.80;7.50;;;;;;;9.70;49.64;100927.02;117368;1186;23573;-58
2022/09/25 03:55:40;;;;;;;7.50;6.70;;;;;;;9.73;49.69;100930.51;117241;1186;23551;-58
2022/09/25 03:58:07;;;;;;;17.60;8.60;;;;;;;9.75;49.70;100928.77;117013;1188;23601;-76
2022/09/25 04:00:35;;;;;;;15.40;7.50;;;;;;;9.78;49.58;100924.20;117095;1188;23596;-75
2022/09/25 04:03:02;;;;;;;10.40;8.10;;;;;;;9.80;49.68;100923.70;117270;1186;21968;-75
2022/09/25 04:05:29;;;;;;;10.50;6.70;;;;;;;9.83;49.52;100924.38;117308;1184;22815;-75
2022/09/25 04:07:56;;;;;;;11.90;7.10;;;;;;;9.85;49.79;100924.38;117325;1184;22934;-75
2022/09/25 04:10:23;;;;;;;10.90;8.50;;;;;;;9.88;49.72;100922.27;117439;1185;21968;-57
2022/09/25 04:12:53;;;;;;;10.40;7.60;;;;;;;9.90;49.58;100922.10;117350;1186;23576;-74
2022/09/25 04:15:24;;;;;;;13.70;7.80;;;;;;;9.94;49.79;100922.63;117255;1186;23554;-57
2022/09/25 04:17:54;;;;;;;10.00;7.70;;;;;;;9.97;49.60;100918.59;117164;1186;21858;-57
2022/09/25 04:20:21;;;;;;;14.80;7.30;;;;;;;10.01;49.70;100921.39;116916;1186;22836;-74
2022/09/25 04:22:48;;;;;;;12.30;7.60;;;;;;;10.06;49.77;100920.33;117054;1186;23602;-57
2022/09/25 04:25:15;;;;;;;16.40;7.40;;;;;;;10.12;49.75;100922.08;117234;1186;23566;-58
2022/09/25 04:27:57;;;;;;;7.90;7.10;;;;;;;10.19;49.89;100921.70;117255;1186;22885;-75
2022/09/25 04:30:25;;;;;;;14.60;7.00;;;;;;;10.26;49.97;100918.02;117267;1186;22742;-58
2022/09/25 04:35:40;;;;;;;17.70;7.80;;;;;;;10.45;50.07;100923.44;117093;1186;22620;-76
2022/09/25 04:38:08;;;;;;;31.10;9.50;;;;;;;10.54;50.14;100924.45;117162;1186;23158;-76
2022/09/25 04:40:36;;;;;;;26.20;9.40;;;;;;;10.68;50.30;100926.68;116983;1188;21878;-57
2022/09/25 04:43:04;;;;;;;31.60;13.90;;;;;;;10.82;50.50;100923.30;117045;1188;24242;-74
2022/09/25 04:45:33;;;;;;;34.60;13.00;;;;;;;10.98;50.35;100922.16;117114;1186;22979;-57
2022/09/25 04:48:01;;;;;;;48.80;17.40;;;;;;;11.12;50.43;100915.75;117147;1182;21863;-57
2022/09/25 04:50:28;;;;;;;73.50;22.10;;;;;;;11.28;50.32;100908.82;117116;1186;24143;-57
2022/09/25 04:52:59;;;;;;;51.90;16.70;;;;;;;11.46;50.39;100907.80;117077;1186;23450;-57
2022/09/25 04:55:26;;;;;;;72.30;23.80;;;;;;;11.65;50.45;100903.61;117271;1186;21858;-57
2022/09/25 04:57:54;;;;;;;106.00;32.10;;;;;;;11.87;50.61;100903.08;117260;1186;21868;-57
2022/09/25 05:00:28;;;;;;;75.20;24.00;;;;;;;12.10;50.30;100904.80;117144;1186;23567;-76
2022/09/25 05:02:54;;;;;;;74.00;23.60;;;;;;;12.35;50.09;100906.14;117314;1186;23116;-58
2022/09/25 05:05:26;;;;;;;87.50;28.10;;;;;;;12.61;49.93;100906.36;117102;1186;24056;-75
2022/09/25 05:07:55;;;;;;;118.70;34.80;;;;;;;12.84;49.64;100908.88;116966;1188;22009;-57
2022/09/25 05:10:23;;;;;;;165.20;42.50;;;;;;;13.00;49.32;100903.02;117072;1186;21849;-75
2022/09/25 05:13:01;;;;;;;97.70;28.80;;;;;;;13.16;49.13;100900.52;117055;1188;23562;-73
2022/09/25 05:15:30;;;;;;;123.60;35.10;;;;;;;13.29;49.24;100900.14;117053;1187;22934;-75
2022/09/25 05:18:17;;;;;;;199.40;58.40;;;;;;;13.39;48.94;100903.54;117022;1186;21851;-75
2022/09/25 05:20:44;;;;;;;168.20;48.40;;;;;;;13.43;48.89;100902.26;117072;1186;23556;-58
2022/09/25 05:23:10;;;;;;;147.50;46.30;;;;;;;13.48;48.91;100905.16;117071;1189;23603;-75
2022/09/25 05:25:38;;;;;;;110.50;37.80;;;;;;;13.52;48.57;100904.76;117056;1186;23615;-58
2022/09/25 05:28:05;;;;;;;34.30;18.90;;;;;;;13.55;48.61;100907.52;117149;1185;23634;-75
2022/09/25 05:30:33;;;;;;;42.00;16.10;;;;;;;13.56;48.71;100906.63;117117;1186;23652;-58
2022/09/25 05:33:01;;;;;;;34.30;15.50;;;;;;;13.57;48.46;100901.86;117060;1187;23134;-58
2022/09/25 05:35:30;;;;;;;27.00;13.40;;;;;;;13.62;48.34;100899.67;117051;1186;22845;-73
2022/09/25 05:37:57;;;;;;;28.40;12.20;;;;;;;13.68;48.64;100898.85;116981;1186;21957;-75
2022/09/25 05:40:25;;;;;;;16.10;11.90;;;;;;;13.77;48.14;100900.46;117101;1186;21898;-75
2022/09/25 05:42:54;;;;;;;13.20;11.30;;;;;;;13.91;48.27;100897.95;117141;1186;21903;-58
2022/09/25 05:45:22;;;;;;;14.60;12.00;;;;;;;14.08;47.94;100899.57;117160;1186;23570;-58
2022/09/25 05:48:00;;;;;;;21.20;12.20;;;;;;;14.28;47.88;100901.67;117205;1186;22899;-58
2022/09/25 05:50:31;;;;;;;12.40;11.20;;;;;;;14.49;47.84;100901.78;117091;1187;22930;-75
2022/09/25 05:52:58;;;;;;;12.50;11.40;;;;;;;14.68;47.47;100902.64;117057;1186;23580;-76
2022/09/25 05:55:25;;;;;;;12.50;11.70;;;;;;;14.89;47.11;100903.10;117182;1186;23553;-75
2022/09/25 05:57:52;;;;;;;13.40;12.10;;;;;;;15.11;46.63;100906.15;117155;1186;21853;-59
2022/09/25 06:00:20;;;;;;;22.20;17.60;;;;;;;15.31;46.36;100902.88;117087;1186;23553;-58
2022/09/25 06:02:52;;;;;;;81.50;36.40;;;;;;;15.53;46.42;100902.33;117186;1186;22844;-58
2022/09/25 06:05:19;;;;;;;46.70;26.40;;;;;;;15.68;45.93;100898.96;117140;1186;21864;-58
2022/09/25 06:07:51;;;;;;;92.10;36.40;;;;;;;15.84;45.73;100901.39;117116;1186;23557;-58
2022/09/25 06:10:18;;;;;;;40.80;24.30;;;;;;;15.98;45.44;100905.65;117209;1186;22632;-59
2022/09/25 06:12:54;;;;;;;85.90;34.00;;;;;;;16.17;45.51;100907.45;116950;1187;22996;-59
2022/09/25 06:15:22;;;;;;;57.10;30.10;;;;;;;16.35;45.10;100903.96;117037;1186;22942;-59
2022/09/25 06:17:51;;;;;;;30.50;23.90;;;;;;;16.52;44.59;100902.59;117144;1186;23570;-75
2022/09/25 06:20:17;;;;;;;65.30;33.40;;;;;;;16.69;44.17;100904.93;117035;1187;22914;-75
2022/09/25 06:22:51;;;;;;;72.60;33.40;;;;;;;16.86;44.13;100908.15;116956;1187;21893;-75
2022/09/25 06:25:24;;;;;;;24.60;22.20;;;;;;;17.05;43.26;100903.36;116980;1186;21848;-75
2022/09/25 06:27:53;;;;;;;22.20;20.40;;;;;;;17.22;43.29;100902.84;117065;1187;21890;-59
2022/09/25 06:30:21;;;;;;;21.10;19.70;;;;;;;17.36;41.58;100904.35;116916;1187;22101;-75
2022/09/25 06:32:50;;;;;;;21.10;19.90;;;;;;;17.54;42.71;100904.84;117095;1185;21857;-58
2022/09/25 06:35:17;;;;;;;27.10;24.60;;;;;;;17.70;42.52;100901.80;117195;1186;23024;-59
2022/09/25 06:37:45;;;;;;;28.60;26.10;;;;;;;17.88;42.59;100898.02;118362;1187;22628;-59
2022/09/25 06:40:12;;;;;;;25.70;24.00;;;;;;;18.06;42.35;100897.94;117101;1186;23654;-59
2022/09/25 06:42:40;;;;;;;26.80;24.90;;;;;;;18.20;41.61;100895.69;117242;1186;22848;-75
2022/09/25 06:45:10;;;;;;;28.70;26.10;;;;;;;18.38;40.91;100891.85;117151;1186;21892;-76
2022/09/25 06:47:37;;;;;;;29.10;26.80;;;;;;;18.58;41.75;100891.09;117256;1186;22927;-74
2022/09/25 06:50:07;;;;;;;27.30;25.40;;;;;;;18.81;41.38;100889.52;117143;1186;23585;-74
2022/09/25 06:52:42;;;;;;;35.50;31.70;;;;;;;19.05;41.68;100886.49;117015;1187;21882;-74
2022/09/25 06:55:09;;;;;;;27.60;25.40;;;;;;;19.22;41.04;100889.55;117100;1186;21854;-72
2022/09/25 06:57:37;;;;;;;29.10;27.30;;;;;;;19.34;39.91;100892.61;117355;1186;23553;-75
2022/09/25 07:00:05;;;;;;;31.10;29.00;;;;;;;19.53;41.05;100893.12;117304;1186;21928;-73
2022/09/25 07:05:20;;;;;;;33.70;31.40;;;;;;;19.89;40.50;100888.23;117112;1186;23603;-59
2022/09/25 07:07:47;;;;;;;30.30;28.60;;;;;;;20.02;38.37;100885.74;117177;1186;23568;-59
2022/09/25 07:10:15;;;;;;;35.10;32.90;;;;;;;20.18;39.77;100887.52;117095;1186;23637;-74
2022/09/25 07:12:43;;;;;;;36.00;33.80;;;;;;;20.31;38.94;100883.55;117347;1185;23557;-72
2022/09/25 07:15:10;;;;;;;32.70;30.90;;;;;;;20.46;38.34;100885.20;117134;1186;24249;-59
2022/09/25 07:17:42;;;;;;;32.80;30.80;;;;;;;20.57;37.29;100878.08;117141;1186;23560;-59
2022/09/25 07:20:12;;;;;;;;;;;;;;;20.69;37.40;100876.31;117192;1186;23519;-73
2022/09/25 07:22:40;;;;;;;28.20;26.10;;;;;;;20.83;37.60;100873.73;117059;1187;22931;-73
2022/09/25 07:25:09;;;;;;;31.20;29.30;;;;;;;20.95;37.01;100871.20;117218;1186;23629;-77
2022/09/25 07:27:36;;;;;;;32.10;30.50;;;;;;;21.03;37.87;100867.08;117177;1186;21858;-73
2022/09/25 07:30:04;;;;;;;29.50;27.90;;;;;;;21.16;35.81;100866.27;117249;1186;24198;-60
2022/09/25 07:32:31;;;;;;;36.10;34.10;;;;;;;21.23;36.02;100860.73;117254;1185;23557;-72
2022/09/25 07:35:01;;;;;;;36.80;34.90;;;;;;;21.32;36.63;100854.73;117437;1186;21902;-73
2022/09/25 07:37:30;;;;;;;39.70;37.10;;;;;;;21.42;36.58;100850.16;117193;1185;23623;-60
2022/09/25 07:39:57;;;;;;;37.10;35.00;;;;;;;21.56;37.45;100848.77;117149;1186;23609;-60
2022/09/25 07:42:24;;;;;;;38.60;36.40;;;;;;;21.73;36.47;100852.39;117248;1186;24736;-60
2022/09/25 07:44:51;;;;;;;44.70;41.30;;;;;;;21.82;35.70;100852.10;117295;1186;23664;-72
2022/09/25 07:47:18;;;;;;;42.60;40.20;;;;;;;21.91;36.72;100853.45;117172;1187;23566;-74
2022/09/25 07:49:46;;;;;;;42.00;39.70;;;;;;;21.95;36.23;100858.39;117145;1186;21887;-72
2022/09/25 07:52:13;;;;;;;51.70;47.00;;;;;;;21.99;35.81;100852.83;117250;1186;22950;-72
2022/09/25 07:54:41;;;;;;;45.80;42.20;;;;;;;22.04;35.46;100855.77;117098;1186;24244;-60
2022/09/25 07:57:08;;;;;;;43.40;40.40;;;;;;;22.11;36.31;100853.27;117151;1186;24162;-69
2022/09/25 07:59:35;;;;;;;55.80;51.70;;;;;;;22.19;35.78;100854.83;117104;1186;24201;-60
2022/09/25 08:02:04;;;;;;;46.00;43.00;;;;;;;22.28;36.53;100848.05;117139;1186;24195;-69
2022/09/25 08:04:31;;;;;;;44.90;42.30;;;;;;;22.36;34.63;100846.38;117104;1186;23603;-69
2022/09/25 08:06:59;;;;;;;47.40;44.80;;;;;;;22.40;34.99;100846.34;117134;1186;23605;-60
2022/09/25 08:09:25;;;;;;;50.40;47.20;;;;;;;22.50;36.22;100839.77;117309;1186;23580;-60
2022/09/25 08:11:53;;;;;;;44.50;42.10;;;;;;;22.65;35.76;100838.58;117312;1186;23470;-61
2022/09/25 08:14:21;;;;;;;43.20;41.00;;;;;;;22.86;35.22;100842.08;117316;1185;21859;-61
2022/09/25 08:16:54;;;;;;;50.20;47.50;;;;;;;23.05;34.28;100838.31;117062;1186;21850;-60
2022/09/25 08:19:26;;;;;;;50.20;47.40;;;;;;;23.21;35.11;100835.27;117169;1186;21892;-60
2022/09/25 08:21:55;;;;;;;51.40;47.90;;;;;;;23.32;34.89;100825.02;116999;1187;21881;-68
2022/09/25 08:24:21;;;;;;;44.50;41.70;;;;;;;23.33;32.92;100820.61;117091;1189;22834;-69
2022/09/25 08:26:49;;;;;;;47.60;45.20;;;;;;;23.28;33.70;100816.40;117356;1185;23592;-67
2022/09/25 08:29:16;;;;;;;49.70;47.30;;;;;;;23.27;32.63;100825.99;117368;1185;22622;-60
2022/09/25 08:31:43;;;;;;;48.90;46.40;;;;;;;23.28;33.78;100825.02;117450;1185;23554;-69
2022/09/25 08:34:11;;;;;;;47.00;44.60;;;;;;;23.30;33.49;100826.35;117414;1185;23570;-61
2022/09/25 08:36:59;;;;;;;46.00;43.70;;;;;;;23.35;33.44;100830.21;117291;1185;22383;-70
2022/09/25 08:39:28;;;;;;;50.20;47.40;;;;;;;23.33;32.85;100830.82;117955;1186;21903;-69
2022/09/25 08:41:55;;;;;;;50.40;47.40;;;;;;;23.37;33.33;100826.67;117121;1186;23573;-69
2022/09/25 08:44:26;;;;;;;51.40;48.50;;;;;;;23.44;33.11;100824.25;117254;1185;22818;-62
2022/09/25 08:50:13;;;;;;;53.50;50.40;;;;;;;23.63;33.64;100829.81;117154;1185;23571;-69
2022/09/25 08:52:41;;;;;;;53.40;50.50;;;;;;;23.63;33.18;100823.67;117313;1189;21921;-62
2022/09/25 08:56:13;;;;;;;63.20;58.90;;;;;;;23.64;32.24;100819.52;117177;1185;21855;-64
2022/09/25 08:58:23;;;;;;;60.90;56.40;;;;;;;23.70;32.17;100818.61;117348;1185;23550;-67
2022/09/25 09:00:53;;;;;;;57.50;53.60;;;;;;;23.74;31.76;100818.34;117339;1184;23455;-68
2022/09/25 09:03:21;;;;;;;53.00;49.90;;;;;;;23.76;31.22;100818.96;117025;1187;23602;-60
2022/09/25 09:05:48;;;;;;;65.50;60.90;;;;;;;23.82;30.47;100820.60;117102;1188;21985;-67
2022/09/25 09:08:24;;;;;;;60.80;56.50;;;;;;;23.93;31.48;100814.91;117036;1188;23582;-59
2022/09/25 09:10:56;;;;;;;63.00;58.70;;;;;;;24.10;31.39;100811.18;117381;1185;21859;-60
2022/09/25 09:13:30;;;;;;;56.30;52.30;;;;;;;24.18;29.97;100814.66;117299;1185;22960;-62
2022/09/25 09:16:27;;;;;;;51.00;48.00;;;;;;;24.24;30.65;100814.59;117021;1186;21869;-62
2022/09/25 09:18:55;;;;;;;51.60;48.60;;;;;;;24.23;29.59;100816.64;117293;1186;23576;-67
2022/09/25 09:21:31;;;;;;;54.90;52.10;;;;;;;24.21;30.14;100811.05;117038;1187;22928;-69
2022/09/25 09:24:07;;;;;;;63.20;59.70;;;;;;;24.13;29.61;100808.11;117102;1187;22045;-70
2022/09/25 09:27:10;;;;;;;56.20;53.10;;;;;;;24.14;30.04;100804.83;117071;1187;23560;-62
2022/09/25 09:29:47;;;;;;;54.60;51.80;;;;;;;24.28;31.35;100793.38;116690;1190;23585;-62
2022/09/25 09:32:30;;;;;;;56.40;53.60;;;;;;;24.39;31.34;100798.83;117034;1190;23580;-69
2022/09/25 09:35:03;;;;;;;62.60;59.50;;;;;;;24.39;30.58;100790.23;117050;1187;22731;-69
2022/09/25 09:37:39;;;;;;;65.40;60.20;;;;;;;24.38;29.85;100789.33;117208;1185;23821;-61
2022/09/25 09:40:11;;;;;;;61.10;57.60;;;;;;;24.46;31.05;100786.52;117322;1185;23576;-66
2022/09/25 09:42:54;;;;;;;61.20;58.10;;;;;;;24.60;30.93;100778.95;117176;1188;21881;-68
2022/09/25 09:45:30;;;;;;;72.60;68.20;;;;;;;24.75;30.98;100773.89;117067;1186;23686;-68
2022/09/25 09:48:19;;;;;;;63.60;60.40;;;;;;;24.78;29.84;100773.51;117081;1187;24268;-68
2022/09/25 09:50:50;;;;;;;68.30;64.80;;;;;;;24.79;29.66;100761.82;116996;1186;24167;-61
2022/09/25 09:53:33;;;;;;;64.40;61.10;;;;;;;24.76;29.47;100758.61;117047;1186;22943;-68
2022/09/25 09:56:04;;;;;;;;;;;;;;;24.75;29.18;100758.50;116972;1187;22930;-61
2022/09/25 09:58:39;;;;;;;50.00;47.40;;;;;;;24.84;30.31;100752.86;117134;1186;22796;-70
2022/09/25 10:01:07;;;;;;;56.40;53.70;;;;;;;25.00;30.46;100745.91;116996;1185;21914;-69
2022/09/25 10:04:10;;;;;;;62.90;59.20;;;;;;;25.10;29.99;100737.17;117022;1186;23653;-61
2022/09/25 10:06:42;;;;;;;61.50;58.50;;;;;;;25.18;30.41;100736.39;117262;1189;23999;-69
2022/09/25 10:09:16;;;;;;;67.20;63.70;;;;;;;25.35;30.24;100731.83;116984;1187;21945;-61
2022/09/25 10:11:44;;;;;;;76.30;72.50;;;;;;;25.48;29.38;100723.42;117312;1185;22831;-61
2022/09/25 10:14:19;;;;;;;65.10;61.90;;;;;;;25.62;29.75;100716.39;117191;1186;22829;-66
2022/09/25 10:16:50;;;;;;;74.50;70.80;;;;;;;25.69;30.53;100712.09;117270;1185;23557;-61
2022/09/25 10:19:22;;;;;;;67.10;63.80;;;;;;;25.72;28.79;100711.18;117184;1185;23590;-60
2022/09/25 10:21:51;;;;;;;73.90;70.20;;;;;;;25.67;28.60;100709.52;117375;1185;21864;-67
2022/09/25 10:24:53;;;;;;;74.50;70.50;;;;;;;25.57;29.16;100704.63;117317;1185;22810;-60
2022/09/25 10:27:24;;;;;;;77.70;74.00;;;;;;;25.45;29.76;100705.67;117415;1181;23445;-66
2022/09/25 10:30:01;;;;;;;74.80;71.30;;;;;;;25.41;30.24;100701.83;117301;1185;23592;-62
2022/09/25 10:32:29;;;;;;;73.90;70.30;;;;;;;25.35;30.04;100688.55;117387;1185;23557;-62
2022/09/25 10:34:57;;;;;;;65.40;62.10;;;;;;;25.41;30.59;100688.48;117329;1185;23612;-67
2022/09/25 10:37:29;;;;;;;70.30;67.00;;;;;;;25.49;29.94;100688.48;117179;1188;23614;-63
2022/09/25 10:40:06;;;;;;;76.90;73.30;;;;;;;25.65;30.16;100680.05;117074;1186;23560;-67
2022/09/25 10:42:38;;;;;;;68.90;65.60;;;;;;;25.67;29.36;100679.38;117103;1186;23556;-62
2022/09/25 10:45:31;;;;;;;83.60;79.60;;;;;;;25.52;29.60;100678.77;116964;1187;23565;-67
2022/09/25 10:50:45;;;;;;;69.70;66.30;;;;;;;25.47;27.44;100682.54;116902;1186;23603;-66
2022/09/25 10:53:38;;;;;;;78.20;74.30;;;;;;;25.43;28.27;100682.98;117073;1186;23661;-62
2022/09/25 10:56:08;;;;;;;78.60;74.60;;;;;;;25.31;28.94;100676.83;117069;1186;23589;-63
2022/09/25 10:58:55;;;;;;;84.40;80.00;;;;;;;25.33;29.28;100670.38;117004;1187;21860;-62
2022/09/25 11:01:37;;;;;;;79.80;75.60;;;;;;;25.42;28.10;100668.33;117055;1186;23603;-67
2022/09/25 11:04:15;;;;;;;77.00;73.30;;;;;;;25.41;27.85;100664.59;117053;1187;23580;-62
2022/09/25 11:06:48;;;;;;;80.00;76.00;;;;;;;25.51;29.46;100655.89;117159;1186;23569;-62
2022/09/25 11:09:18;;;;;;;78.40;74.40;;;;;;;25.74;29.37;100647.75;117187;1186;23621;-62
2022/09/25 11:11:48;;;;;;;80.60;76.70;;;;;;;25.87;28.72;100651.35;117106;1186;21871;-67
2022/09/25 11:14:25;;;;;;;78.30;74.40;;;;;;;25.76;28.34;100651.57;117104;1186;23557;-67
2022/09/25 11:16:54;;;;;;;78.00;74.30;;;;;;;25.60;29.43;100650.05;116945;1184;21861;-68
2022/09/25 11:19:25;;;;;;;80.20;75.90;;;;;;;25.50;29.60;100648.02;117076;1186;23454;-66
2022/09/25 11:22:06;;;;;;;73.00;69.50;;;;;;;25.52;29.39;100643.56;117126;1186;21888;-61
2022/09/25 11:24:39;;;;;;;;;;;;;;;25.60;28.51;100637.84;117128;1186;21951;-62
2022/09/25 11:27:22;;;;;;;60.30;57.30;;;;;;;25.66;28.46;100638.80;117148;1186;22844;-67
2022/09/25 11:30:01;;;;;;;76.00;72.00;;;;;;;25.64;28.62;100630.35;117131;1185;23580;-61
2022/09/25 11:32:49;;;;;;;71.10;67.70;;;;;;;25.60;28.03;100619.86;117260;1186;23586;-62
2022/09/25 11:35:26;;;;;;;67.80;64.30;;;;;;;25.69;27.62;100616.65;117228;1186;22812;-67
2022/09/25 11:38:14;;;;;;;77.80;74.10;;;;;;;25.80;27.15;100611.53;117010;1187;21944;-62
2022/09/25 11:44:15;;;;;;;70.80;66.70;;;;;;;26.24;27.31;100608.40;117028;1187;23560;-68
2022/09/25 11:46:56;;;;;;;76.50;72.60;;;;;;;26.16;27.13;100611.34;117031;1187;23696;-62
2022/09/25 11:49:27;;;;;;;76.10;72.20;;;;;;;25.99;27.73;100611.28;117074;1187;23571;-62
2022/09/25 11:52:15;;;;;;;85.10;80.90;;;;;;;26.06;27.96;100612.02;117020;1187;22638;-62
2022/09/25 11:55:06;;;;;;;83.30;79.00;;;;;;;26.25;28.05;100602.91;117171;1186;22651;-61